sensor_id;sensor_type;location;lat;lon;timestamp;P1;durP1;ratioP1;P2;durP2;ratioP2
11439;SDS011;5776;51.814;4.510;2023-07-02T00:02:21;6.25;;;3.25;;
11439;SDS011;5776;51.814;4.510;2023-07-02T00:04:48;8.63;;;4.70;;
11439;SDS011;5776;51.814;4.510;2023-07-02T00:07:14;10.63;;;4.82;;
11439;SDS011;5776;51.814;4.510;2023-07-02T00:09:42;10.65;;;4.25;;
11439;SDS011;5776;51.814;4.510;2023-07-02T00:12:08;12.00;;;5.38;;
11439;SDS011;5776;51.814;4.510;2023-07-02T00:14:38;17.13;;;5.20;;
11439;SDS011;5776;51.814;4.510;2023-07-02T00:17:04;10.23;;;4.75;;
11439;SDS011;5776;51.814;4.510;2023-07-02T00:19:30;17.25;;;4.82;;
11439;SDS011;5776;51.814;4.510;2023-07-02T00:21:56;14.70;;;5.53;;
11439;SDS011;5776;51.814;4.510;2023-07-02T00:24:24;13.02;;;4.32;;
11439;SDS011;5776;51.814;4.510;2023-07-02T00:26:49;13.60;;;5.47;;
11439;SDS011;5776;51.814;4.510;2023-07-02T00:29:15;11.95;;;4.28;;
11439;SDS011;5776;51.814;4.510;2023-07-02T00:31:41;13.98;;;4.63;;
11439;SDS011;5776;51.814;4.510;2023-07-02T00:34:07;11.73;;;4.80;;
11439;SDS011;5776;51.814;4.510;2023-07-02T00:36:33;8.45;;;3.95;;
11439;SDS011;5776;51.814;4.510;2023-07-02T00:38:59;8.43;;;4.00;;
11439;SDS011;5776;51.814;4.510;2023-07-02T00:41:25;15.80;;;5.15;;
11439;SDS011;5776;51.814;4.510;2023-07-02T00:43:52;13.88;;;4.68;;
11439;SDS011;5776;51.814;4.510;2023-07-02T00:46:21;10.25;;;4.40;;
11439;SDS011;5776;51.814;4.510;2023-07-02T00:48:51;12.43;;;4.20;;
11439;SDS011;5776;51.814;4.510;2023-07-02T00:51:19;10.40;;;4.47;;
11439;SDS011;5776;51.814;4.510;2023-07-02T00:53:47;14.07;;;4.63;;
11439;SDS011;5776;51.814;4.510;2023-07-02T00:56:15;10.70;;;4.63;;
11439;SDS011;5776;51.814;4.510;2023-07-02T00:58:43;10.38;;;4.03;;
11439;SDS011;5776;51.814;4.510;2023-07-02T01:01:20;11.98;;;4.57;;
11439;SDS011;5776;51.814;4.510;2023-07-02T01:06:36;11.18;;;3.90;;
11439;SDS011;5776;51.814;4.510;2023-07-02T01:09:05;11.57;;;4.55;;
11439;SDS011;5776;51.814;4.510;2023-07-02T01:14:14;13.35;;;5.35;;
11439;SDS011;5776;51.814;4.510;2023-07-02T01:16:42;12.07;;;5.03;;
11439;SDS011;5776;51.814;4.510;2023-07-02T01:19:13;13.43;;;4.95;;
11439;SDS011;5776;51.814;4.510;2023-07-02T01:22:00;11.55;;;4.55;;
11439;SDS011;5776;51.814;4.510;2023-07-02T01:24:27;15.48;;;5.28;;
11439;SDS011;5776;51.814;4.510;2023-07-02T01:26:53;12.23;;;4.30;;
11439;SDS011;5776;51.814;4.510;2023-07-02T01:29:21;16.55;;;5.60;;
11439;SDS011;5776;51.814;4.510;2023-07-02T01:31:47;12.88;;;4.82;;
11439;SDS011;5776;51.814;4.510;2023-07-02T01:34:14;13.50;;;4.70;;
11439;SDS011;5776;51.814;4.510;2023-07-02T01:36:39;13.48;;;5.65;;
11439;SDS011;5776;51.814;4.510;2023-07-02T01:39:06;11.52;;;4.80;;
11439;SDS011;5776;51.814;4.510;2023-07-02T01:41:48;11.90;;;4.38;;
11439;SDS011;5776;51.814;4.510;2023-07-02T01:44:15;12.85;;;5.20;;
11439;SDS011;5776;51.814;4.510;2023-07-02T01:46:42;13.77;;;4.65;;
11439;SDS011;5776;51.814;4.510;2023-07-02T01:49:08;11.35;;;4.05;;
11439;SDS011;5776;51.814;4.510;2023-07-02T01:51:35;10.68;;;4.32;;
11439;SDS011;5776;51.814;4.510;2023-07-02T01:54:00;11.38;;;4.90;;
11439;SDS011;5776;51.814;4.510;2023-07-02T01:56:27;17.92;;;4.88;;
11439;SDS011;5776;51.814;4.510;2023-07-02T01:58:54;10.23;;;5.40;;
11439;SDS011;5776;51.814;4.510;2023-07-02T02:01:20;13.80;;;4.50;;
11439;SDS011;5776;51.814;4.510;2023-07-02T02:03:46;10.65;;;4.85;;
11439;SDS011;5776;51.814;4.510;2023-07-02T02:06:12;14.02;;;5.35;;
11439;SDS011;5776;51.814;4.510;2023-07-02T02:08:38;11.23;;;4.70;;
11439;SDS011;5776;51.814;4.510;2023-07-02T02:11:04;15.05;;;4.75;;
11439;SDS011;5776;51.814;4.510;2023-07-02T02:13:30;11.52;;;5.15;;
11439;SDS011;5776;51.814;4.510;2023-07-02T02:15:55;13.30;;;4.50;;
11439;SDS011;5776;51.814;4.510;2023-07-02T02:18:21;14.13;;;5.30;;
11439;SDS011;5776;51.814;4.510;2023-07-02T02:20:47;16.50;;;4.65;;
11439;SDS011;5776;51.814;4.510;2023-07-02T02:23:13;13.02;;;5.35;;
11439;SDS011;5776;51.814;4.510;2023-07-02T02:25:39;12.60;;;5.15;;
11439;SDS011;5776;51.814;4.510;2023-07-02T02:28:05;17.15;;;4.93;;
11439;SDS011;5776;51.814;4.510;2023-07-02T02:30:31;11.95;;;5.05;;
11439;SDS011;5776;51.814;4.510;2023-07-02T02:32:57;12.65;;;4.43;;
11439;SDS011;5776;51.814;4.510;2023-07-02T02:35:26;13.75;;;5.35;;
11439;SDS011;5776;51.814;4.510;2023-07-02T02:37:52;13.02;;;5.15;;
11439;SDS011;5776;51.814;4.510;2023-07-02T02:40:17;12.00;;;5.18;;
11439;SDS011;5776;51.814;4.510;2023-07-02T02:42:43;13.73;;;5.13;;
11439;SDS011;5776;51.814;4.510;2023-07-02T02:45:09;15.00;;;5.03;;
11439;SDS011;5776;51.814;4.510;2023-07-02T02:47:35;16.75;;;5.35;;
11439;SDS011;5776;51.814;4.510;2023-07-02T02:50:01;15.00;;;5.00;;
11439;SDS011;5776;51.814;4.510;2023-07-02T02:52:27;16.27;;;5.10;;
11439;SDS011;5776;51.814;4.510;2023-07-02T02:54:53;21.75;;;5.28;;
11439;SDS011;5776;51.814;4.510;2023-07-02T02:57:19;11.43;;;5.22;;
11439;SDS011;5776;51.814;4.510;2023-07-02T02:59:45;11.27;;;4.35;;
11439;SDS011;5776;51.814;4.510;2023-07-02T03:02:11;13.73;;;4.95;;
11439;SDS011;5776;51.814;4.510;2023-07-02T03:04:37;11.32;;;4.97;;
11439;SDS011;5776;51.814;4.510;2023-07-02T03:07:06;12.77;;;4.70;;
11439;SDS011;5776;51.814;4.510;2023-07-02T03:09:35;14.95;;;4.80;;
11439;SDS011;5776;51.814;4.510;2023-07-02T03:12:01;12.75;;;4.60;;
11439;SDS011;5776;51.814;4.510;2023-07-02T03:14:27;15.02;;;5.10;;
11439;SDS011;5776;51.814;4.510;2023-07-02T03:16:53;14.48;;;5.75;;
11439;SDS011;5776;51.814;4.510;2023-07-02T03:19:20;12.50;;;4.90;;
11439;SDS011;5776;51.814;4.510;2023-07-02T03:21:46;14.25;;;4.97;;
11439;SDS011;5776;51.814;4.510;2023-07-02T03:24:11;12.80;;;4.95;;
11439;SDS011;5776;51.814;4.510;2023-07-02T03:26:39;10.93;;;4.28;;
11439;SDS011;5776;51.814;4.510;2023-07-02T03:29:06;15.40;;;4.50;;
11439;SDS011;5776;51.814;4.510;2023-07-02T03:31:32;13.20;;;4.72;;
11439;SDS011;5776;51.814;4.510;2023-07-02T03:33:59;9.23;;;4.13;;
11439;SDS011;5776;51.814;4.510;2023-07-02T03:36:27;14.00;;;4.28;;
11439;SDS011;5776;51.814;4.510;2023-07-02T03:38:54;17.90;;;4.95;;
11439;SDS011;5776;51.814;4.510;2023-07-02T03:41:20;14.90;;;5.32;;
11439;SDS011;5776;51.814;4.510;2023-07-02T03:43:46;13.38;;;5.07;;
11439;SDS011;5776;51.814;4.510;2023-07-02T03:46:13;13.30;;;4.38;;
11439;SDS011;5776;51.814;4.510;2023-07-02T03:48:39;19.50;;;4.85;;
11439;SDS011;5776;51.814;4.510;2023-07-02T03:51:06;12.00;;;4.88;;
11439;SDS011;5776;51.814;4.510;2023-07-02T03:53:32;13.18;;;4.38;;
11439;SDS011;5776;51.814;4.510;2023-07-02T03:55:57;11.98;;;3.92;;
11439;SDS011;5776;51.814;4.510;2023-07-02T03:58:23;14.63;;;4.75;;
11439;SDS011;5776;51.814;4.510;2023-07-02T04:00:49;18.00;;;4.90;;
11439;SDS011;5776;51.814;4.510;2023-07-02T04:03:15;10.43;;;3.90;;
11439;SDS011;5776;51.814;4.510;2023-07-02T04:05:42;18.58;;;4.65;;
11439;SDS011;5776;51.814;4.510;2023-07-02T04:08:08;12.63;;;3.95;;
11439;SDS011;5776;51.814;4.510;2023-07-02T04:10:35;11.90;;;4.30;;
11439;SDS011;5776;51.814;4.510;2023-07-02T04:13:02;7.93;;;3.63;;
11439;SDS011;5776;51.814;4.510;2023-07-02T04:15:28;12.25;;;4.57;;
11439;SDS011;5776;51.814;4.510;2023-07-02T04:17:54;13.50;;;4.63;;
11439;SDS011;5776;51.814;4.510;2023-07-02T04:20:20;14.77;;;4.10;;
11439;SDS011;5776;51.814;4.510;2023-07-02T04:22:46;14.20;;;4.30;;
11439;SDS011;5776;51.814;4.510;2023-07-02T04:25:13;9.63;;;3.88;;
11439;SDS011;5776;51.814;4.510;2023-07-02T04:27:42;13.45;;;4.72;;
11439;SDS011;5776;51.814;4.510;2023-07-02T04:30:10;12.82;;;4.50;;
11439;SDS011;5776;51.814;4.510;2023-07-02T04:32:37;10.95;;;4.53;;
11439;SDS011;5776;51.814;4.510;2023-07-02T04:35:08;12.38;;;4.47;;
11439;SDS011;5776;51.814;4.510;2023-07-02T04:37:34;8.55;;;3.78;;
11439;SDS011;5776;51.814;4.510;2023-07-02T04:40:00;11.55;;;4.18;;
11439;SDS011;5776;51.814;4.510;2023-07-02T04:42:27;17.73;;;4.13;;
11439;SDS011;5776;51.814;4.510;2023-07-02T04:44:56;15.20;;;4.68;;
11439;SDS011;5776;51.814;4.510;2023-07-02T04:47:22;17.00;;;4.47;;
11439;SDS011;5776;51.814;4.510;2023-07-02T04:49:47;13.57;;;4.72;;
11439;SDS011;5776;51.814;4.510;2023-07-02T04:52:13;11.63;;;4.00;;
11439;SDS011;5776;51.814;4.510;2023-07-02T04:54:39;12.73;;;4.35;;
11439;SDS011;5776;51.814;4.510;2023-07-02T04:57:05;14.23;;;4.38;;
11439;SDS011;5776;51.814;4.510;2023-07-02T04:59:31;11.07;;;3.85;;
11439;SDS011;5776;51.814;4.510;2023-07-02T05:01:57;13.02;;;4.43;;
11439;SDS011;5776;51.814;4.510;2023-07-02T05:04:23;12.52;;;4.65;;
11439;SDS011;5776;51.814;4.510;2023-07-02T05:06:49;15.13;;;4.88;;
11439;SDS011;5776;51.814;4.510;2023-07-02T05:09:15;10.85;;;4.45;;
11439;SDS011;5776;51.814;4.510;2023-07-02T05:11:41;8.43;;;3.80;;
11439;SDS011;5776;51.814;4.510;2023-07-02T05:14:07;9.75;;;3.28;;
11439;SDS011;5776;51.814;4.510;2023-07-02T05:16:33;15.35;;;4.53;;
11439;SDS011;5776;51.814;4.510;2023-07-02T05:18:58;8.35;;;3.53;;
11439;SDS011;5776;51.814;4.510;2023-07-02T05:21:24;11.18;;;4.05;;
11439;SDS011;5776;51.814;4.510;2023-07-02T05:23:50;10.65;;;3.40;;
11439;SDS011;5776;51.814;4.510;2023-07-02T05:26:16;7.55;;;3.10;;
11439;SDS011;5776;51.814;4.510;2023-07-02T05:28:42;13.68;;;4.18;;
11439;SDS011;5776;51.814;4.510;2023-07-02T05:31:09;9.55;;;3.75;;
11439;SDS011;5776;51.814;4.510;2023-07-02T05:33:36;9.93;;;3.72;;
11439;SDS011;5776;51.814;4.510;2023-07-02T05:36:03;13.48;;;4.25;;
11439;SDS011;5776;51.814;4.510;2023-07-02T05:38:29;10.57;;;3.97;;
11439;SDS011;5776;51.814;4.510;2023-07-02T05:40:55;10.75;;;3.80;;
11439;SDS011;5776;51.814;4.510;2023-07-02T05:43:21;13.48;;;4.05;;
11439;SDS011;5776;51.814;4.510;2023-07-02T05:45:50;14.70;;;4.00;;
11439;SDS011;5776;51.814;4.510;2023-07-02T05:48:17;10.63;;;4.03;;
11439;SDS011;5776;51.814;4.510;2023-07-02T05:50:43;13.60;;;4.20;;
11439;SDS011;5776;51.814;4.510;2023-07-02T05:53:09;13.75;;;5.05;;
11439;SDS011;5776;51.814;4.510;2023-07-02T05:55:36;11.32;;;4.45;;
11439;SDS011;5776;51.814;4.510;2023-07-02T05:58:02;13.45;;;4.57;;
11439;SDS011;5776;51.814;4.510;2023-07-02T06:00:29;12.52;;;3.70;;
11439;SDS011;5776;51.814;4.510;2023-07-02T06:02:55;14.85;;;4.40;;
11439;SDS011;5776;51.814;4.510;2023-07-02T06:05:20;11.93;;;4.43;;
11439;SDS011;5776;51.814;4.510;2023-07-02T06:07:46;13.07;;;4.35;;
11439;SDS011;5776;51.814;4.510;2023-07-02T06:10:12;10.65;;;4.63;;
11439;SDS011;5776;51.814;4.510;2023-07-02T06:12:38;12.07;;;3.65;;
11439;SDS011;5776;51.814;4.510;2023-07-02T06:15:04;13.57;;;4.15;;
11439;SDS011;5776;51.814;4.510;2023-07-02T06:17:30;12.77;;;4.47;;
11439;SDS011;5776;51.814;4.510;2023-07-02T06:19:56;10.27;;;3.78;;
11439;SDS011;5776;51.814;4.510;2023-07-02T06:22:23;9.93;;;3.80;;
11439;SDS011;5776;51.814;4.510;2023-07-02T06:24:49;12.50;;;4.47;;
11439;SDS011;5776;51.814;4.510;2023-07-02T06:27:15;8.88;;;3.53;;
11439;SDS011;5776;51.814;4.510;2023-07-02T06:29:41;9.20;;;3.95;;
11439;SDS011;5776;51.814;4.510;2023-07-02T06:32:07;11.68;;;4.15;;
11439;SDS011;5776;51.814;4.510;2023-07-02T06:34:33;15.65;;;4.72;;
11439;SDS011;5776;51.814;4.510;2023-07-02T06:36:58;11.35;;;3.78;;
11439;SDS011;5776;51.814;4.510;2023-07-02T06:39:24;15.50;;;3.97;;
11439;SDS011;5776;51.814;4.510;2023-07-02T06:41:50;11.82;;;4.00;;
11439;SDS011;5776;51.814;4.510;2023-07-02T06:44:16;11.02;;;4.32;;
11439;SDS011;5776;51.814;4.510;2023-07-02T06:46:42;9.80;;;4.25;;
11439;SDS011;5776;51.814;4.510;2023-07-02T06:49:11;8.20;;;3.70;;
11439;SDS011;5776;51.814;4.510;2023-07-02T06:51:37;11.25;;;4.03;;
11439;SDS011;5776;51.814;4.510;2023-07-02T06:54:03;12.05;;;3.63;;
11439;SDS011;5776;51.814;4.510;2023-07-02T06:56:29;8.98;;;3.58;;
11439;SDS011;5776;51.814;4.510;2023-07-02T06:58:56;7.47;;;3.78;;
11439;SDS011;5776;51.814;4.510;2023-07-02T07:01:22;9.77;;;3.60;;
11439;SDS011;5776;51.814;4.510;2023-07-02T07:03:48;12.82;;;4.05;;
11439;SDS011;5776;51.814;4.510;2023-07-02T07:06:14;11.88;;;4.45;;
11439;SDS011;5776;51.814;4.510;2023-07-02T07:08:40;7.68;;;3.53;;
11439;SDS011;5776;51.814;4.510;2023-07-02T07:11:06;13.23;;;4.13;;
11439;SDS011;5776;51.814;4.510;2023-07-02T07:13:32;15.10;;;4.53;;
11439;SDS011;5776;51.814;4.510;2023-07-02T07:15:58;12.45;;;4.25;;
11439;SDS011;5776;51.814;4.510;2023-07-02T07:18:24;12.77;;;3.80;;
11439;SDS011;5776;51.814;4.510;2023-07-02T07:20:49;10.05;;;3.13;;
11439;SDS011;5776;51.814;4.510;2023-07-02T07:23:15;13.13;;;4.72;;
11439;SDS011;5776;51.814;4.510;2023-07-02T07:25:43;11.77;;;3.63;;
11439;SDS011;5776;51.814;4.510;2023-07-02T07:28:09;9.65;;;3.85;;
11439;SDS011;5776;51.814;4.510;2023-07-02T07:30:41;10.32;;;4.10;;
11439;SDS011;5776;51.814;4.510;2023-07-02T07:33:08;9.35;;;3.38;;
11439;SDS011;5776;51.814;4.510;2023-07-02T07:35:34;12.30;;;4.25;;
11439;SDS011;5776;51.814;4.510;2023-07-02T07:37:59;11.48;;;3.45;;
11439;SDS011;5776;51.814;4.510;2023-07-02T07:40:25;7.70;;;3.67;;
11439;SDS011;5776;51.814;4.510;2023-07-02T07:42:51;13.35;;;3.83;;
11439;SDS011;5776;51.814;4.510;2023-07-02T07:45:17;11.90;;;3.95;;
11439;SDS011;5776;51.814;4.510;2023-07-02T07:47:43;9.63;;;3.55;;
11439;SDS011;5776;51.814;4.510;2023-07-02T07:50:09;9.50;;;3.80;;
11439;SDS011;5776;51.814;4.510;2023-07-02T07:52:41;12.00;;;3.72;;
11439;SDS011;5776;51.814;4.510;2023-07-02T07:55:08;13.02;;;4.80;;
11439;SDS011;5776;51.814;4.510;2023-07-02T07:57:35;10.90;;;3.83;;
11439;SDS011;5776;51.814;4.510;2023-07-02T08:00:04;13.52;;;3.53;;
11439;SDS011;5776;51.814;4.510;2023-07-02T08:02:37;11.07;;;3.53;;
11439;SDS011;5776;51.814;4.510;2023-07-02T08:05:04;12.05;;;4.80;;
11439;SDS011;5776;51.814;4.510;2023-07-02T08:07:31;11.38;;;3.63;;
11439;SDS011;5776;51.814;4.510;2023-07-02T08:09:58;10.63;;;3.35;;
11439;SDS011;5776;51.814;4.510;2023-07-02T08:12:24;11.13;;;3.92;;
11439;SDS011;5776;51.814;4.510;2023-07-02T08:14:52;10.48;;;4.05;;
11439;SDS011;5776;51.814;4.510;2023-07-02T08:17:17;12.10;;;4.22;;
11439;SDS011;5776;51.814;4.510;2023-07-02T08:19:43;10.50;;;4.63;;
11439;SDS011;5776;51.814;4.510;2023-07-02T08:22:09;9.02;;;4.32;;
11439;SDS011;5776;51.814;4.510;2023-07-02T08:24:35;10.43;;;4.53;;
11439;SDS011;5776;51.814;4.510;2023-07-02T08:27:01;9.07;;;4.13;;
11439;SDS011;5776;51.814;4.510;2023-07-02T08:29:29;13.07;;;4.20;;
11439;SDS011;5776;51.814;4.510;2023-07-02T08:31:55;10.07;;;4.57;;
11439;SDS011;5776;51.814;4.510;2023-07-02T08:34:21;11.68;;;3.95;;
11439;SDS011;5776;51.814;4.510;2023-07-02T08:36:47;8.55;;;3.85;;
11439;SDS011;5776;51.814;4.510;2023-07-02T08:39:14;7.95;;;3.10;;
11439;SDS011;5776;51.814;4.510;2023-07-02T08:41:41;10.45;;;3.47;;
11439;SDS011;5776;51.814;4.510;2023-07-02T08:44:09;7.30;;;3.20;;
11439;SDS011;5776;51.814;4.510;2023-07-02T08:46:37;6.10;;;2.72;;
11439;SDS011;5776;51.814;4.510;2023-07-02T08:49:03;7.28;;;3.35;;
11439;SDS011;5776;51.814;4.510;2023-07-02T08:51:30;9.63;;;2.83;;
11439;SDS011;5776;51.814;4.510;2023-07-02T08:53:56;11.13;;;3.25;;
11439;SDS011;5776;51.814;4.510;2023-07-02T08:56:21;5.45;;;2.50;;
11439;SDS011;5776;51.814;4.510;2023-07-02T08:58:47;5.90;;;2.33;;
11439;SDS011;5776;51.814;4.510;2023-07-02T09:01:13;5.95;;;2.55;;
11439;SDS011;5776;51.814;4.510;2023-07-02T09:03:40;6.68;;;2.30;;
11439;SDS011;5776;51.814;4.510;2023-07-02T09:06:07;4.43;;;2.25;;
11439;SDS011;5776;51.814;4.510;2023-07-02T09:08:34;6.82;;;2.53;;
11439;SDS011;5776;51.814;4.510;2023-07-02T09:11:10;5.47;;;2.25;;
11439;SDS011;5776;51.814;4.510;2023-07-02T09:13:47;4.20;;;2.17;;
11439;SDS011;5776;51.814;4.510;2023-07-02T09:16:33;7.03;;;2.10;;
11439;SDS011;5776;51.814;4.510;2023-07-02T09:19:03;7.93;;;2.78;;
11439;SDS011;5776;51.814;4.510;2023-07-02T09:21:42;4.45;;;2.25;;
11439;SDS011;5776;51.814;4.510;2023-07-02T09:24:15;5.45;;;1.75;;
11439;SDS011;5776;51.814;4.510;2023-07-02T09:26:42;4.57;;;2.10;;
11439;SDS011;5776;51.814;4.510;2023-07-02T09:29:09;6.55;;;1.90;;
11439;SDS011;5776;51.814;4.510;2023-07-02T09:31:45;5.28;;;2.00;;
11439;SDS011;5776;51.814;4.510;2023-07-02T09:34:12;4.30;;;2.28;;
11439;SDS011;5776;51.814;4.510;2023-07-02T09:36:38;3.90;;;1.88;;
11439;SDS011;5776;51.814;4.510;2023-07-02T09:39:11;5.63;;;2.20;;
11439;SDS011;5776;51.814;4.510;2023-07-02T09:41:45;5.75;;;2.00;;
11439;SDS011;5776;51.814;4.510;2023-07-02T09:44:14;8.05;;;2.50;;
11439;SDS011;5776;51.814;4.510;2023-07-02T09:46:41;6.70;;;3.17;;
11439;SDS011;5776;51.814;4.510;2023-07-02T09:49:15;5.18;;;2.30;;
11439;SDS011;5776;51.814;4.510;2023-07-02T09:51:42;7.75;;;2.30;;
11439;SDS011;5776;51.814;4.510;2023-07-02T09:54:10;7.22;;;1.85;;
11439;SDS011;5776;51.814;4.510;2023-07-02T09:56:36;5.60;;;2.30;;
11439;SDS011;5776;51.814;4.510;2023-07-02T09:59:02;4.57;;;2.20;;
11439;SDS011;5776;51.814;4.510;2023-07-02T10:01:27;5.60;;;2.28;;
11439;SDS011;5776;51.814;4.510;2023-07-02T10:03:53;6.93;;;2.55;;
11439;SDS011;5776;51.814;4.510;2023-07-02T10:06:21;5.80;;;2.30;;
11439;SDS011;5776;51.814;4.510;2023-07-02T10:08:53;5.20;;;2.10;;
11439;SDS011;5776;51.814;4.510;2023-07-02T10:11:20;3.70;;;2.15;;
11439;SDS011;5776;51.814;4.510;2023-07-02T10:13:46;6.57;;;2.28;;
11439;SDS011;5776;51.814;4.510;2023-07-02T10:16:23;5.07;;;1.98;;
11439;SDS011;5776;51.814;4.510;2023-07-02T10:18:52;4.43;;;1.92;;
11439;SDS011;5776;51.814;4.510;2023-07-02T10:21:18;4.28;;;2.10;;
11439;SDS011;5776;51.814;4.510;2023-07-02T10:23:47;9.80;;;2.67;;
11439;SDS011;5776;51.814;4.510;2023-07-02T10:26:14;5.90;;;2.20;;
11439;SDS011;5776;51.814;4.510;2023-07-02T10:28:42;6.18;;;2.28;;
11439;SDS011;5776;51.814;4.510;2023-07-02T10:31:21;4.68;;;2.10;;
11439;SDS011;5776;51.814;4.510;2023-07-02T10:33:47;5.72;;;2.20;;
11439;SDS011;5776;51.814;4.510;2023-07-02T10:36:19;10.05;;;2.72;;
11439;SDS011;5776;51.814;4.510;2023-07-02T10:38:50;4.82;;;2.28;;
11439;SDS011;5776;51.814;4.510;2023-07-02T10:41:27;8.50;;;2.47;;
11439;SDS011;5776;51.814;4.510;2023-07-02T10:43:54;6.35;;;2.80;;
11439;SDS011;5776;51.814;4.510;2023-07-02T10:46:30;7.85;;;2.58;;
11439;SDS011;5776;51.814;4.510;2023-07-02T10:48:56;6.47;;;2.40;;
11439;SDS011;5776;51.814;4.510;2023-07-02T10:51:23;9.35;;;2.33;;
11439;SDS011;5776;51.814;4.510;2023-07-02T10:53:57;5.93;;;2.42;;
11439;SDS011;5776;51.814;4.510;2023-07-02T10:56:25;6.43;;;2.72;;
11439;SDS011;5776;51.814;4.510;2023-07-02T10:58:53;8.40;;;3.13;;
11439;SDS011;5776;51.814;4.510;2023-07-02T11:01:29;9.38;;;3.33;;
11439;SDS011;5776;51.814;4.510;2023-07-02T11:03:57;8.07;;;3.05;;
11439;SDS011;5776;51.814;4.510;2023-07-02T11:06:24;7.95;;;3.00;;
11439;SDS011;5776;51.814;4.510;2023-07-02T11:08:51;6.85;;;2.88;;
11439;SDS011;5776;51.814;4.510;2023-07-02T11:11:17;8.30;;;2.72;;
11439;SDS011;5776;51.814;4.510;2023-07-02T11:13:44;9.55;;;2.97;;
11439;SDS011;5776;51.814;4.510;2023-07-02T11:18:50;11.38;;;3.10;;
11439;SDS011;5776;51.814;4.510;2023-07-02T11:21:17;9.00;;;3.20;;
11439;SDS011;5776;51.814;4.510;2023-07-02T11:23:42;9.95;;;3.13;;
11439;SDS011;5776;51.814;4.510;2023-07-02T11:26:08;7.18;;;3.20;;
11439;SDS011;5776;51.814;4.510;2023-07-02T11:28:34;7.47;;;2.85;;
11439;SDS011;5776;51.814;4.510;2023-07-02T11:31:00;8.15;;;3.00;;
11439;SDS011;5776;51.814;4.510;2023-07-02T11:33:32;7.43;;;3.03;;
11439;SDS011;5776;51.814;4.510;2023-07-02T11:35:58;7.63;;;3.42;;
11439;SDS011;5776;51.814;4.510;2023-07-02T11:38:24;7.80;;;3.10;;
11439;SDS011;5776;51.814;4.510;2023-07-02T11:40:50;7.32;;;2.90;;
11439;SDS011;5776;51.814;4.510;2023-07-02T11:43:16;10.27;;;3.33;;
11439;SDS011;5776;51.814;4.510;2023-07-02T11:45:43;8.13;;;2.95;;
11439;SDS011;5776;51.814;4.510;2023-07-02T11:48:09;9.07;;;3.60;;
11439;SDS011;5776;51.814;4.510;2023-07-02T11:50:35;7.50;;;3.22;;
11439;SDS011;5776;51.814;4.510;2023-07-02T11:53:01;7.35;;;2.80;;
11439;SDS011;5776;51.814;4.510;2023-07-02T11:55:28;8.40;;;3.60;;
11439;SDS011;5776;51.814;4.510;2023-07-02T11:57:54;7.03;;;3.13;;
11439;SDS011;5776;51.814;4.510;2023-07-02T12:00:20;8.70;;;2.72;;
11439;SDS011;5776;51.814;4.510;2023-07-02T12:02:46;7.47;;;3.22;;
11439;SDS011;5776;51.814;4.510;2023-07-02T12:05:12;9.98;;;3.15;;
11439;SDS011;5776;51.814;4.510;2023-07-02T12:07:37;6.43;;;2.63;;
11439;SDS011;5776;51.814;4.510;2023-07-02T12:10:03;9.88;;;3.20;;
11439;SDS011;5776;51.814;4.510;2023-07-02T12:12:30;6.18;;;2.83;;
11439;SDS011;5776;51.814;4.510;2023-07-02T12:14:56;9.68;;;3.00;;
11439;SDS011;5776;51.814;4.510;2023-07-02T12:17:22;10.73;;;3.70;;
11439;SDS011;5776;51.814;4.510;2023-07-02T12:19:48;10.98;;;3.55;;
11439;SDS011;5776;51.814;4.510;2023-07-02T12:22:13;8.15;;;3.00;;
11439;SDS011;5776;51.814;4.510;2023-07-02T12:24:41;11.95;;;3.17;;
11439;SDS011;5776;51.814;4.510;2023-07-02T12:27:08;7.45;;;3.33;;
11439;SDS011;5776;51.814;4.510;2023-07-02T12:29:35;7.78;;;3.30;;
11439;SDS011;5776;51.814;4.510;2023-07-02T12:32:01;8.30;;;2.88;;
11439;SDS011;5776;51.814;4.510;2023-07-02T12:34:27;7.53;;;3.30;;
11439;SDS011;5776;51.814;4.510;2023-07-02T12:36:54;8.40;;;2.70;;
11439;SDS011;5776;51.814;4.510;2023-07-02T12:39:20;13.02;;;3.53;;
11439;SDS011;5776;51.814;4.510;2023-07-02T12:41:46;7.18;;;2.60;;
11439;SDS011;5776;51.814;4.510;2023-07-02T12:44:12;6.03;;;2.78;;
11439;SDS011;5776;51.814;4.510;2023-07-02T12:46:38;10.07;;;3.40;;
11439;SDS011;5776;51.814;4.510;2023-07-02T12:49:04;10.32;;;3.65;;
11439;SDS011;5776;51.814;4.510;2023-07-02T12:51:30;9.30;;;2.95;;
11439;SDS011;5776;51.814;4.510;2023-07-02T12:53:55;6.00;;;2.83;;
11439;SDS011;5776;51.814;4.510;2023-07-02T12:56:22;9.05;;;2.85;;
11439;SDS011;5776;51.814;4.510;2023-07-02T12:58:48;7.82;;;3.08;;
11439;SDS011;5776;51.814;4.510;2023-07-02T13:01:14;7.65;;;3.13;;
11439;SDS011;5776;51.814;4.510;2023-07-02T13:03:44;5.43;;;2.45;;
11439;SDS011;5776;51.814;4.510;2023-07-02T13:06:13;7.70;;;3.20;;
11439;SDS011;5776;51.814;4.510;2023-07-02T13:08:40;4.28;;;2.42;;
11439;SDS011;5776;51.814;4.510;2023-07-02T13:11:06;6.18;;;2.95;;
11439;SDS011;5776;51.814;4.510;2023-07-02T13:13:33;5.97;;;2.88;;
11439;SDS011;5776;51.814;4.510;2023-07-02T13:16:02;7.10;;;2.90;;
11439;SDS011;5776;51.814;4.510;2023-07-02T13:18:28;7.78;;;2.78;;
11439;SDS011;5776;51.814;4.510;2023-07-02T13:20:54;7.78;;;3.30;;
11439;SDS011;5776;51.814;4.510;2023-07-02T13:23:20;6.85;;;2.70;;
11439;SDS011;5776;51.814;4.510;2023-07-02T13:25:45;7.28;;;2.50;;
11439;SDS011;5776;51.814;4.510;2023-07-02T13:28:11;5.50;;;2.50;;
11439;SDS011;5776;51.814;4.510;2023-07-02T13:30:37;5.75;;;1.83;;
11439;SDS011;5776;51.814;4.510;2023-07-02T13:33:03;7.60;;;2.55;;
11439;SDS011;5776;51.814;4.510;2023-07-02T13:35:29;8.20;;;2.85;;
11439;SDS011;5776;51.814;4.510;2023-07-02T13:37:56;6.90;;;2.97;;
11439;SDS011;5776;51.814;4.510;2023-07-02T13:40:25;9.30;;;2.70;;
11439;SDS011;5776;51.814;4.510;2023-07-02T13:42:51;5.03;;;1.98;;
11439;SDS011;5776;51.814;4.510;2023-07-02T13:45:17;6.32;;;2.42;;
11439;SDS011;5776;51.814;4.510;2023-07-02T13:47:43;4.65;;;2.50;;
11439;SDS011;5776;51.814;4.510;2023-07-02T13:50:09;5.13;;;2.10;;
11439;SDS011;5776;51.814;4.510;2023-07-02T13:52:36;9.20;;;2.20;;
11439;SDS011;5776;51.814;4.510;2023-07-02T13:55:03;5.75;;;2.13;;
11439;SDS011;5776;51.814;4.510;2023-07-02T13:57:29;5.30;;;2.40;;
11439;SDS011;5776;51.814;4.510;2023-07-02T13:59:55;6.70;;;2.75;;
11439;SDS011;5776;51.814;4.510;2023-07-02T14:02:23;4.93;;;2.45;;
11439;SDS011;5776;51.814;4.510;2023-07-02T14:04:48;4.43;;;2.38;;
11439;SDS011;5776;51.814;4.510;2023-07-02T14:07:15;5.68;;;2.58;;
11439;SDS011;5776;51.814;4.510;2023-07-02T14:09:41;6.85;;;2.85;;
11439;SDS011;5776;51.814;4.510;2023-07-02T14:12:07;6.55;;;2.55;;
11439;SDS011;5776;51.814;4.510;2023-07-02T14:14:33;9.43;;;2.55;;
11439;SDS011;5776;51.814;4.510;2023-07-02T14:16:59;7.68;;;2.95;;
11439;SDS011;5776;51.814;4.510;2023-07-02T14:19:25;6.60;;;3.08;;
11439;SDS011;5776;51.814;4.510;2023-07-02T14:21:51;5.60;;;2.80;;
11439;SDS011;5776;51.814;4.510;2023-07-02T14:24:17;6.63;;;3.55;;
11439;SDS011;5776;51.814;4.510;2023-07-02T14:26:43;7.35;;;2.80;;
11439;SDS011;5776;51.814;4.510;2023-07-02T14:29:10;8.45;;;3.22;;
11439;SDS011;5776;51.814;4.510;2023-07-02T14:31:36;11.57;;;2.90;;
11439;SDS011;5776;51.814;4.510;2023-07-02T14:34:02;6.50;;;2.88;;
11439;SDS011;5776;51.814;4.510;2023-07-02T14:36:28;7.35;;;3.30;;
11439;SDS011;5776;51.814;4.510;2023-07-02T14:38:54;11.27;;;2.53;;
11439;SDS011;5776;51.814;4.510;2023-07-02T14:41:20;6.10;;;2.67;;
11439;SDS011;5776;51.814;4.510;2023-07-02T14:43:46;6.72;;;3.20;;
11439;SDS011;5776;51.814;4.510;2023-07-02T14:46:12;10.75;;;3.72;;
11439;SDS011;5776;51.814;4.510;2023-07-02T14:48:37;9.07;;;3.45;;
11439;SDS011;5776;51.814;4.510;2023-07-02T14:51:03;7.43;;;3.15;;
11439;SDS011;5776;51.814;4.510;2023-07-02T14:53:30;5.22;;;2.63;;
11439;SDS011;5776;51.814;4.510;2023-07-02T14:55:59;8.40;;;3.40;;
11439;SDS011;5776;51.814;4.510;2023-07-02T14:58:26;7.63;;;3.40;;
11439;SDS011;5776;51.814;4.510;2023-07-02T15:00:54;9.80;;;3.28;;